Time;durP1;ratioP1;P1;durP2;ratioP2;P2;SDS_P1;SDS_P2;PMS_P1;PMS_P2;Temp;Humidity;BMP_temperature;BMP_pressure;BME280_temperature;BME280_humidity;BME280_pressure;Samples;Min_cycle;Max_cycle;Signal;HPM_P1;HPM_P2
2023/08/08 00:00:51;;;;;;;6.33;2.07;;;14.80;1.00;;;;;;4978842;28;20478;-92
2023/08/08 00:03:16;;;;;;;6.63;2.70;;;14.70;1.00;;;;;;4977271;29;20415;-92
2023/08/08 00:05:44;;;;;;;4.70;2.85;;;;;;;;;;4968044;29;20477;-92
2023/08/08 00:08:11;;;;;;;3.60;1.80;;;14.70;1.00;;;;;;4966170;29;21018;-92
2023/08/08 00:10:38;;;;;;;7.20;2.90;;;;;;;;;;4973350;29;20446;-92
2023/08/08 00:13:05;;;;;;;4.17;3.00;;;14.70;99.90;;;;;;4982631;28;20454;-91
2023/08/08 00:15:33;;;;;;;2.37;2.17;;;14.40;99.90;;;;;;4978363;28;20462;-91
2023/08/08 00:18:01;;;;;;;3.60;2.63;;;;;;;;;;4967327;29;20450;-91
2023/08/08 00:20:28;;;;;;;6.57;2.40;;;14.60;1.00;;;;;;4975181;28;20457;-93
2023/08/08 00:22:55;;;;;;;2.63;2.43;;;;;;;;;;4971863;29;20481;-92
2023/08/08 00:25:22;;;;;;;3.80;2.87;;;14.50;1.00;;;;;;4972676;29;20468;-93
2023/08/08 00:27:51;;;;;;;4.13;2.10;;;14.40;1.00;;;;;;4982934;28;20509;-91
2023/08/08 00:30:18;;;;;;;6.63;2.00;;;14.30;99.90;;;;;;4983183;28;20466;-92
2023/08/08 00:32:46;;;;;;;8.37;3.57;;;14.40;1.00;;;;;;4977099;28;20450;-91
2023/08/08 00:35:14;;;;;;;6.33;3.00;;;;;;;;;;4966786;29;20502;-91
2023/08/08 00:37:42;;;;;;;2.83;2.30;;;14.40;1.00;;;;;;4972915;29;20442;-92
2023/08/08 00:40:10;;;;;;;3.00;2.30;;;14.50;99.90;;;;;;4978426;29;20442;-92
2023/08/08 00:42:37;;;;;;;3.60;2.30;;;;;;;;;;4978695;28;20430;-91
2023/08/08 00:45:05;;;;;;;5.33;2.47;;;14.40;1.00;;;;;;4977939;29;20473;-92
2023/08/08 00:47:33;;;;;;;3.83;2.23;;;;;;;;;;4970973;29;20478;-92
2023/08/08 00:50:03;;;;;;;5.97;1.83;;;14.30;1.00;;;;;;4973024;29;20481;-92
2023/08/08 00:52:31;;;;;;;3.50;2.60;;;;;;;;;;4977436;28;20446;-92
2023/08/08 00:54:59;;;;;;;2.60;2.27;;;14.30;1.00;;;;;;4975802;28;20546;-92
2023/08/08 00:57:26;;;;;;;2.27;1.90;;;14.30;71.30;;;;;;4976874;29;20422;-92
2023/08/08 00:59:53;;;;;;;5.97;2.30;;;;;;;;;;4979441;28;20455;-92
2023/08/08 01:02:21;;;;;;;4.70;2.10;;;14.30;1.00;;;;;;4976066;28;20832;-92
2023/08/08 01:04:48;;;;;;;3.67;2.20;;;14.30;99.90;;;;;;4972178;29;20489;-92
2023/08/08 01:07:28;;;;;;;11.70;2.50;;;14.10;1.00;;;;;;4975206;29;20506;-93
2023/08/08 01:10:04;;;;;;;5.30;2.47;;;14.10;1.00;;;;;;4970804;29;20533;-94
2023/08/08 01:12:32;;;;;;;4.70;1.40;;;14.20;99.90;;;;;;4969508;29;20460;-93
2023/08/08 01:14:59;;;;;;;4.10;2.60;;;;;;;;;;4967310;29;20469;-92
2023/08/08 01:17:28;;;;;;;6.03;2.80;;;14.20;99.90;;;;;;4966247;29;20454;-92
2023/08/08 01:19:55;;;;;;;6.63;2.73;;;14.10;99.90;;;;;;4968059;29;20458;-92
2023/08/08 01:22:30;;;;;;;4.50;2.17;;;14.00;1.00;;;;;;4979079;29;20454;-91
2023/08/08 01:25:00;;;;;;;5.57;2.53;;;14.10;99.90;;;;;;4981000;28;20450;-92
2023/08/08 01:27:29;;;;;;;5.33;1.83;;;13.90;99.90;;;;;;4982351;28;20591;-93
2023/08/08 01:29:56;;;;;;;10.70;2.60;;;14.00;1.00;;;;;;4971869;28;20459;-93
2023/08/08 01:32:23;;;;;;;4.80;2.07;;;14.20;1.00;;;;;;4966491;29;20454;-92
2023/08/08 01:34:50;;;;;;;2.70;2.10;;;;;;;;;;4966552;29;20493;-93
2023/08/08 01:37:21;;;;;;;2.10;1.90;;;14.00;1.00;;;;;;4964638;29;20450;-92
2023/08/08 01:39:51;;;;;;;2.47;2.10;;;14.00;1.00;;;;;;4964318;29;20430;-91
2023/08/08 01:42:23;;;;;;;1.80;1.70;;;14.00;1.00;;;;;;4977273;28;20431;-91
2023/08/08 01:44:50;;;;;;;2.47;1.77;;;14.00;1.00;;;;;;4977962;28;20470;-91
2023/08/08 01:47:17;;;;;;;5.60;2.37;;;14.00;1.00;;;;;;4976231;29;20493;-92
2023/08/08 01:49:44;;;;;;;2.30;1.63;;;14.00;1.00;;;;;;4974269;29;20450;-92
2023/08/08 01:52:11;;;;;;;2.30;1.60;;;;;;;;;;4974510;29;20852;-93
2023/08/08 01:54:38;;;;;;;3.07;2.53;;;14.20;99.90;;;;;;4972662;29;20474;-93
2023/08/08 01:57:06;;;;;;;3.60;1.90;;;13.90;99.90;;;;;;4975286;28;20501;-91
2023/08/08 01:59:35;;;;;;;2.13;1.63;;;14.00;1.00;;;;;;4982002;28;20435;-92
2023/08/08 02:02:03;;;;;;;5.47;2.27;;;;;;;;;;4980986;28;20449;-93
2023/08/08 02:04:30;;;;;;;2.73;1.70;;;13.80;99.90;;;;;;4979197;28;20451;-92
2023/08/08 02:06:57;;;;;;;3.00;1.63;;;;;;;;;;4978181;28;20593;-92
2023/08/08 02:09:25;;;;;;;3.00;2.10;;;;;;;;;;4973431;28;20443;-93
2023/08/08 02:11:52;;;;;;;2.80;2.00;;;14.10;99.90;;;;;;4970084;29;20454;-94
2023/08/08 02:14:19;;;;;;;2.70;2.03;;;;;;;;;;4971148;29;20458;-92
2023/08/08 02:16:48;;;;;;;3.83;1.90;;;13.90;1.00;;;;;;4981053;28;20454;-92
2023/08/08 02:19:15;;;;;;;2.90;1.73;;;;;;;;;;4981414;28;20446;-92
2023/08/08 02:21:43;;;;;;;4.93;2.37;;;;;;;;;;4981422;28;20473;-90
2023/08/08 02:24:10;;;;;;;1.90;1.80;;;13.90;1.00;;;;;;4981153;28;20474;-91
2023/08/08 02:26:37;;;;;;;5.20;2.30;;;;;;;;;;4979888;28;20450;-92
2023/08/08 02:29:04;;;;;;;2.80;2.10;;;13.90;1.00;;;;;;4974648;29;20454;-92
2023/08/08 02:31:31;;;;;;;2.80;1.77;;;13.90;1.00;;;;;;4972078;29;20442;-92
2023/08/08 02:34:00;;;;;;;6.93;1.60;;;13.80;1.00;;;;;;4972658;29;20502;-92
2023/08/08 02:36:28;;;;;;;1.80;1.70;;;;;;;;;;4969355;29;20442;-92
2023/08/08 02:38:55;;;;;;;1.57;1.47;;;13.80;1.00;;;;;;4968076;29;20477;-92
2023/08/08 02:41:22;;;;;;;3.87;2.60;;;;;;;;;;4977264;28;20458;-91
2023/08/08 02:43:49;;;;;;;2.97;1.40;;;;;;;;;;4966795;29;20525;-91
2023/08/08 02:46:17;;;;;;;2.90;2.07;;;;;;;;;;4968149;29;20454;-92
2023/08/08 02:48:44;;;;;;;4.63;2.10;;;;;;;;;;4967687;29;20533;-91
2023/08/08 02:51:12;;;;;;;2.20;2.00;;;13.70;1.00;;;;;;4969279;29;20454;-92
2023/08/08 02:53:40;;;;;;;5.87;2.90;;;;;;;;;;4976485;28;20462;-92
2023/08/08 02:56:07;;;;;;;3.57;1.83;;;13.70;99.90;;;;;;4978108;28;20442;-92
2023/08/08 02:58:34;;;;;;;4.30;2.20;;;;;;;;;;4975484;29;20521;-92
2023/08/08 03:01:01;;;;;;;2.20;2.00;;;13.80;99.90;;;;;;4972609;28;20442;-92
2023/08/08 03:03:28;;;;;;;3.50;2.10;;;;;;;;;;4976365;29;20438;-91
2023/08/08 03:05:55;;;;;;;2.87;2.47;;;13.70;1.00;;;;;;4968505;29;20456;-92
2023/08/08 03:08:24;;;;;;;2.20;1.70;;;13.70;99.90;;;;;;4974405;28;20529;-91
2023/08/08 03:10:51;;;;;;;4.60;2.33;;;;;;;;;;4968293;29;20458;-92
2023/08/08 03:13:19;;;;;;;3.47;2.77;;;13.70;1.00;;;;;;4967207;29;20457;-92
2023/08/08 03:15:46;;;;;;;4.17;2.60;;;;;;;;;;4979790;28;20466;-90
2023/08/08 03:18:13;;;;;;;3.27;2.93;;;13.70;13.00;;;;;;4978166;28;20513;-93
2023/08/08 03:20:41;;;;;;;6.20;2.50;;;14.40;14.80;;;;;;4976320;28;20469;-93
2023/08/08 03:23:09;;;;;;;3.27;2.27;;;;;;;;;;4966070;29;20433;-93
2023/08/08 03:25:37;;;;;;;4.50;2.63;;;13.60;99.90;;;;;;4965487;29;20900;-92
2023/08/08 03:28:04;;;;;;;2.83;2.60;;;13.60;99.90;;;;;;4965156;29;20502;-93
2023/08/08 03:30:32;;;;;;;5.53;2.37;;;;;;;;;;4972231;28;20466;-93
2023/08/08 03:32:59;;;;;;;3.43;3.00;;;;;;;;;;4965599;29;20458;-93
2023/08/08 03:35:27;;;;;;;3.90;2.37;;;;;;;;;;4965700;29;20474;-93
2023/08/08 03:37:54;;;;;;;4.23;2.17;;;13.60;94.90;;;;;;4966217;29;20454;-92
2023/08/08 03:40:21;;;;;;;4.83;2.50;;;;;;;;;;4969784;29;20450;-92
2023/08/08 03:42:50;;;;;;;3.77;3.00;;;13.70;95.60;;;;;;4967477;29;20451;-93
2023/08/08 03:45:17;;;;;;;2.63;2.40;;;;;;;;;;4965581;29;20615;-93
2023/08/08 03:47:44;;;;;;;4.20;2.87;;;13.60;85.30;;;;;;4964476;29;20509;-92
2023/08/08 03:50:12;;;;;;;4.27;2.30;;;13.50;99.10;;;;;;4963750;29;20478;-92
2023/08/08 03:52:39;;;;;;;3.00;2.60;;;13.50;99.90;;;;;;4965100;29;20450;-92
2023/08/08 03:55:06;;;;;;;4.00;2.37;;;13.60;99.90;;;;;;4967024;28;20510;-93
2023/08/08 03:57:34;;;;;;;6.70;2.43;;;;;;;;;;4967104;29;20474;-93
2023/08/08 04:00:07;;;;;;;5.27;2.30;;;13.70;99.90;;;;;;4966797;29;20442;-93
2023/08/08 04:02:34;;;;;;;4.47;2.33;;;;;;;;;;4967273;28;20462;-93
2023/08/08 04:05:01;;;;;;;2.73;1.97;;;13.70;99.90;;;;;;4964173;29;20577;-93
2023/08/08 04:07:29;;;;;;;2.53;2.33;;;;;;;;;;4970189;29;20466;-92
2023/08/08 04:09:55;;;;;;;4.83;2.20;;;13.70;99.90;;;;;;4966771;28;20427;-93
2023/08/08 04:12:23;;;;;;;3.57;3.27;;;;;;;;;;4965845;29;20469;-93
2023/08/08 04:14:50;;;;;;;4.43;2.60;;;;;;;;;;4974076;28;20458;-93
2023/08/08 04:17:18;;;;;;;3.90;2.97;;;13.80;99.90;;;;;;4965105;29;20489;-92
2023/08/08 04:19:46;;;;;;;5.40;2.77;;;;;;;;;;4964994;29;20492;-92
2023/08/08 04:22:12;;;;;;;3.87;2.50;;;13.90;99.90;;;;;;4964122;29;20486;-92
2023/08/08 04:24:39;;;;;;;3.00;2.70;;;13.90;99.90;;;;;;4978973;28;20461;-91
2023/08/08 04:27:06;;;;;;;2.60;2.40;;;13.90;99.90;;;;;;4977058;28;20489;-93
2023/08/08 04:29:33;;;;;;;2.60;2.43;;;;;;;;;;4970214;29;20458;-92
2023/08/08 04:32:01;;;;;;;2.70;2.40;;;;;;;;;;4979786;28;20432;-91
2023/08/08 04:34:29;;;;;;;2.70;2.33;;;13.90;1.00;;;;;;4982551;28;20465;-91
2023/08/08 04:36:56;;;;;;;2.70;2.13;;;13.50;99.90;;;;;;4982979;28;20461;-92
2023/08/08 04:39:23;;;;;;;4.53;2.70;;;;;;;;;;4978087;28;20478;-93
2023/08/08 04:41:50;;;;;;;5.83;2.47;;;13.70;99.90;;;;;;4968201;29;20450;-93
2023/08/08 04:44:17;;;;;;;4.40;2.33;;;14.10;99.90;;;;;;4967804;29;20469;-92
2023/08/08 04:46:44;;;;;;;3.87;2.10;;;;;;;;;;4968066;29;20955;-91
2023/08/08 04:49:11;;;;;;;2.97;2.00;;;14.00;92.00;;;;;;4968259;29;20549;-92
2023/08/08 04:51:40;;;;;;;6.73;2.50;;;14.00;99.90;;;;;;4977602;28;20434;-91
2023/08/08 04:54:07;;;;;;;10.37;3.17;;;14.00;99.90;;;;;;4979518;28;20482;-91
2023/08/08 04:56:34;;;;;;;3.73;2.20;;;;;;;;;;4973695;29;20481;-91
2023/08/08 04:59:01;;;;;;;5.07;2.70;;;14.00;99.90;;;;;;4982667;28;20474;-92
2023/08/08 05:01:31;;;;;;;5.97;2.30;;;13.80;1.00;;;;;;4982187;28;20521;-92
2023/08/08 05:03:58;;;;;;;5.90;2.50;;;14.00;99.90;;;;;;4970191;29;20930;-93
2023/08/08 05:06:27;;;;;;;3.87;2.77;;;14.10;99.90;;;;;;4968502;29;20456;-92
2023/08/08 05:08:56;;;;;;;4.73;2.40;;;14.20;99.90;;;;;;4981534;28;20493;-92
2023/08/08 05:11:23;;;;;;;3.27;2.57;;;;;;;;;;4982176;28;20427;-92
2023/08/08 05:13:50;;;;;;;2.70;2.50;;;14.20;99.90;;;;;;4980880;28;20505;-93
2023/08/08 05:16:18;;;;;;;7.10;4.47;;;;;;;;;;4971074;29;20455;-90
2023/08/08 05:18:45;;;;;;;5.83;2.40;;;;;;;;;;4980537;29;20462;-91
2023/08/08 05:21:12;;;;;;;6.77;2.50;;;;;;;;;;4976435;29;20509;-90
2023/08/08 05:23:39;;;;;;;2.73;2.00;;;14.20;1.00;;;;;;4968702;29;20470;-93
2023/08/08 05:26:44;;;;;;;3.33;2.57;;;13.90;1.00;;;;;;4967092;29;20481;-91
2023/08/08 05:29:11;;;;;;;2.80;2.60;;;14.20;99.90;;;;;;4967754;29;20852;-91
2023/08/08 05:31:38;;;;;;;4.40;2.63;;;14.30;99.90;;;;;;4967944;29;20462;-91
2023/08/08 05:34:04;;;;;;;6.43;2.43;;;14.20;99.90;;;;;;4966261;29;20458;-90
2023/08/08 05:36:31;;;;;;;2.73;2.30;;;14.10;99.90;;;;;;4965321;29;20457;-91
2023/08/08 05:38:58;;;;;;;3.83;2.67;;;14.30;99.90;;;;;;4966720;29;20446;-89
2023/08/08 05:41:25;;;;;;;2.57;2.37;;;14.40;99.90;;;;;;4978384;29;20442;-90
2023/08/08 05:43:53;;;;;;;4.47;2.47;;;14.50;99.90;;;;;;4976518;28;20534;-92
2023/08/08 05:46:20;;;;;;;3.23;2.17;;;14.30;99.90;;;;;;4974041;29;20493;-91
2023/08/08 05:48:47;;;;;;;2.60;2.10;;;;;;;;;;4971820;29;20488;-91
2023/08/08 05:51:15;;;;;;;3.50;2.83;;;14.80;1.00;;;;;;4971673;29;21002;-90
2023/08/08 05:53:42;;;;;;;3.23;2.60;;;15.00;99.90;;;;;;4968280;29;20457;-90
2023/08/08 05:56:09;;;;;;;2.43;2.23;;;15.20;1.00;;;;;;4967168;29;20461;-91
2023/08/08 05:58:37;;;;;;;2.67;2.47;;;14.90;1.00;;;;;;4968388;29;20478;-90
2023/08/08 06:01:06;;;;;;;4.00;2.30;;;14.90;1.00;;;;;;4965884;28;20962;-92
2023/08/08 06:03:33;;;;;;;3.73;1.90;;;14.80;99.90;;;;;;4964983;29;20470;-92
2023/08/08 06:06:00;;;;;;;4.27;2.20;;;14.90;1.00;;;;;;4964494;29;20501;-91
2023/08/08 06:08:27;;;;;;;2.87;2.63;;;;;;;;;;4963862;29;20482;-91
2023/08/08 06:10:54;;;;;;;2.90;2.60;;;15.00;94.10;;;;;;4965873;29;20450;-90
2023/08/08 06:13:21;;;;;;;3.97;2.40;;;15.00;99.90;;;;;;4973731;28;20468;-91
2023/08/08 06:16:06;;;;;;;2.97;2.57;;;15.20;99.90;;;;;;4981073;28;20467;-91
2023/08/08 06:18:35;;;;;;;6.93;2.90;;;15.20;1.00;;;;;;4981376;28;20437;-90
2023/08/08 06:21:02;;;;;;;5.73;2.93;;;;;;;;;;4980641;28;20438;-91
2023/08/08 06:23:29;;;;;;;2.47;2.20;;;15.00;99.90;;;;;;4981126;28;20435;-90
2023/08/08 06:25:56;;;;;;;2.70;2.50;;;;;;;;;;4981116;28;20501;-91
2023/08/08 06:28:24;;;;;;;3.67;2.37;;;;;;;;;;4981155;28;20477;-92
2023/08/08 06:30:53;;;;;;;8.67;3.07;;;;;;;;;;4981162;28;20443;-90
2023/08/08 06:33:20;;;;;;;5.83;2.60;;;15.30;1.00;;;;;;4980033;28;20442;-91
2023/08/08 06:35:48;;;;;;;5.20;3.20;;;15.30;1.00;;;;;;4980951;28;20434;-90
2023/08/08 06:38:15;;;;;;;2.43;2.23;;;;;;;;;;4978581;28;20467;-90
2023/08/08 06:40:42;;;;;;;7.10;2.50;;;15.40;1.00;;;;;;4971372;29;20454;-91
2023/08/08 06:43:12;;;;;;;2.80;2.23;;;15.40;1.00;;;;;;4965354;29;20458;-90
2023/08/08 06:45:40;;;;;;;4.30;3.60;;;15.40;15.20;;;;;;4966259;29;20559;-90
2023/08/08 06:48:07;;;;;;;3.60;3.27;;;15.30;12.10;;;;;;4970036;29;20490;-89
2023/08/08 06:50:35;;;;;;;5.93;2.93;;;;;;;;;;4975807;28;20452;-90
2023/08/08 06:53:04;;;;;;;2.60;2.40;;;15.30;23.60;;;;;;4980487;28;20434;-90
2023/08/08 06:55:32;;;;;;;6.80;2.73;;;;;;;;;;4976229;28;20506;-91
2023/08/08 06:57:59;;;;;;;4.03;3.63;;;15.30;99.90;;;;;;4966827;29;20450;-91
2023/08/08 07:00:27;;;;;;;3.00;2.70;;;15.30;67.80;;;;;;4965454;29;20458;-90
2023/08/08 07:02:55;;;;;;;3.27;2.67;;;;;;;;;;4964293;28;21035;-91
2023/08/08 07:05:23;;;;;;;2.60;2.40;;;;;;;;;;4964657;29;20474;-91
2023/08/08 07:07:51;;;;;;;6.50;2.10;;;;;;;;;;4967307;29;20510;-90
2023/08/08 07:10:20;;;;;;;3.10;2.53;;;15.50;1.00;;;;;;4962044;29;20485;-91
2023/08/08 07:12:47;;;;;;;2.73;2.53;;;15.50;80.70;;;;;;4962684;29;20990;-91
2023/08/08 07:15:14;;;;;;;3.67;2.83;;;;;;;;;;4963245;29;20468;-91
2023/08/08 07:17:41;;;;;;;4.20;2.93;;;15.80;1.00;;;;;;4962318;29;20450;-91
2023/08/08 07:20:13;;;;;;;7.43;6.03;;;15.80;1.00;;;;;;4961872;29;20954;-90
2023/08/08 07:22:40;;;;;;;9.80;6.23;;;16.00;1.00;;;;;;4961700;29;20973;-90
2023/08/08 07:25:08;;;;;;;3.73;2.73;;;16.00;1.00;;;;;;4961951;29;20523;-91
2023/08/08 07:27:36;;;;;;;3.33;3.03;;;17.60;1.00;;;;;;4960805;29;20454;-91
2023/08/08 07:30:04;;;;;;;6.00;2.90;;;15.30;1.00;;;;;;4961985;29;20491;-90
2023/08/08 07:32:31;;;;;;;3.67;3.10;;;16.50;1.00;;;;;;4962653;29;20499;-90
2023/08/08 07:34:58;;;;;;;2.80;2.17;;;16.50;1.00;;;;;;4963204;29;21034;-90
2023/08/08 07:37:25;;;;;;;3.43;2.83;;;;;;;;;;4979851;28;20467;-91
2023/08/08 07:39:52;;;;;;;5.50;3.00;;;16.60;99.90;;;;;;4980195;28;20502;-91
2023/08/08 07:42:19;;;;;;;3.73;3.33;;;17.40;1.00;;;;;;4974296;28;20527;-91
2023/08/08 07:44:47;;;;;;;3.40;3.00;;;16.30;1.00;;;;;;4963011;29;20471;-90
2023/08/08 07:47:14;;;;;;;5.17;2.60;;;16.40;1.00;;;;;;4962506;29;21008;-90
2023/08/08 07:49:41;;;;;;;4.27;3.90;;;16.10;1.00;;;;;;4962245;29;20546;-89
2023/08/08 07:52:08;;;;;;;5.27;2.80;;;16.00;1.00;;;;;;4963164;29;20538;-90
2023/08/08 07:54:38;;;;;;;3.20;2.90;;;16.30;1.00;;;;;;4962654;29;20471;-91
2023/08/08 07:57:05;;;;;;;3.67;3.40;;;16.50;99.90;;;;;;4969430;28;20444;-91
2023/08/08 07:59:32;;;;;;;3.50;3.30;;;16.80;99.90;;;;;;4980125;28;20448;-90
2023/08/08 08:02:01;;;;;;;2.80;2.60;;;16.20;1.00;;;;;;4979262;28;20449;-91
2023/08/08 08:04:28;;;;;;;4.90;3.00;;;;;;;;;;4975055;29;20469;-91
2023/08/08 08:06:55;;;;;;;2.90;2.50;;;16.30;1.00;;;;;;4973344;28;20480;-91
2023/08/08 08:09:22;;;;;;;3.43;3.13;;;16.10;1.00;;;;;;4976366;28;20887;-91
2023/08/08 08:11:49;;;;;;;2.57;2.37;;;;;;;;;;4966153;29;20823;-91
2023/08/08 08:14:16;;;;;;;3.30;2.70;;;16.40;1.00;;;;;;4964073;29;20524;-91
2023/08/08 08:16:43;;;;;;;7.57;2.70;;;16.40;1.00;;;;;;4964724;29;20456;-91
2023/08/08 08:19:11;;;;;;;4.50;3.67;;;16.60;1.00;;;;;;4966366;29;20453;-91
2023/08/08 08:21:38;;;;;;;8.73;5.13;;;;;;;;;;4965684;29;20812;-90
2023/08/08 08:24:06;;;;;;;5.73;2.87;;;16.80;1.00;;;;;;4965862;29;20469;-90
2023/08/08 08:26:33;;;;;;;7.17;2.83;;;16.80;1.00;;;;;;4965383;29;20448;-90
2023/08/08 08:29:00;;;;;;;2.73;2.10;;;16.80;1.00;;;;;;4965237;29;20840;-90
2023/08/08 08:31:27;;;;;;;3.27;2.80;;;16.90;1.00;;;;;;4976612;29;20450;-89
2023/08/08 08:33:56;;;;;;;3.13;2.50;;;16.90;1.00;;;;;;4981052;28;20462;-87
2023/08/08 08:36:25;;;;;;;2.97;2.37;;;17.00;1.00;;;;;;4967780;29;20462;-89
2023/08/08 08:38:53;;;;;;;3.33;2.47;;;17.10;1.00;;;;;;4965760;29;20485;-90
2023/08/08 08:41:24;;;;;;;5.83;2.73;;;17.30;1.00;;;;;;4965118;29;20453;-90
2023/08/08 08:43:57;;;;;;;2.80;2.60;;;17.30;1.00;;;;;;4964845;29;20492;-87
2023/08/08 08:46:27;;;;;;;5.07;2.10;;;17.20;1.00;;;;;;4969073;29;20454;-92
2023/08/08 08:48:56;;;;;;;4.60;2.93;;;17.20;99.90;;;;;;4966787;29;20557;-90
2023/08/08 08:51:30;;;;;;;8.10;3.53;;;17.00;1.00;;;;;;4964388;29;20540;-89
2023/08/08 08:54:03;;;;;;;3.37;2.90;;;17.30;1.00;;;;;;4967237;29;20552;-91
2023/08/08 08:56:32;;;;;;;6.30;2.97;;;;;;;;;;4965655;29;20441;-90
2023/08/08 08:59:00;;;;;;;3.53;2.97;;;17.20;1.00;;;;;;4965315;29;20446;-89
2023/08/08 09:01:28;;;;;;;5.20;2.20;;;17.20;1.00;;;;;;4966167;28;20500;-90
2023/08/08 09:03:55;;;;;;;2.87;2.60;;;17.00;1.00;;;;;;4966125;29;20473;-90
2023/08/08 09:06:24;;;;;;;5.20;2.60;;;17.10;1.00;;;;;;4972383;28;20541;-92
2023/08/08 09:08:53;;;;;;;9.57;3.50;;;17.20;1.00;;;;;;4966065;29;21053;-91
2023/08/08 09:11:20;;;;;;;5.97;3.00;;;;;;;;;;4967711;29;20950;-90
2023/08/08 09:13:47;;;;;;;5.27;4.10;;;17.30;99.90;;;;;;4973912;29;20501;-91
2023/08/08 09:16:14;;;;;;;9.13;3.43;;;17.50;1.00;;;;;;4980813;29;20473;-91
2023/08/08 09:18:42;;;;;;;5.00;2.93;;;17.20;1.00;;;;;;4980143;28;20426;-90
2023/08/08 09:21:09;;;;;;;3.33;2.73;;;17.30;1.00;;;;;;4978336;28;20513;-91
2023/08/08 09:23:39;;;;;;;4.50;3.23;;;17.50;1.00;;;;;;4970338;29;20506;-91
2023/08/08 09:26:08;;;;;;;2.70;2.50;;;17.50;1.00;;;;;;4967954;29;20454;-91
2023/08/08 09:28:35;;;;;;;2.93;2.70;;;17.60;1.00;;;;;;4964341;29;20477;-91
2023/08/08 09:31:02;;;;;;;3.20;2.87;;;17.80;1.00;;;;;;4965210;29;20556;-91
2023/08/08 09:33:30;;;;;;;4.20;3.50;;;18.00;1.00;;;;;;4963698;29;20870;-92
2023/08/08 09:35:57;;;;;;;3.73;3.30;;;18.10;1.00;;;;;;4963729;29;20532;-91
2023/08/08 09:38:24;;;;;;;4.13;2.40;;;18.00;1.00;;;;;;4975331;28;20462;-91
2023/08/08 09:40:51;;;;;;;3.37;2.37;;;17.90;1.00;;;;;;4975893;29;20865;-92
2023/08/08 09:43:20;;;;;;;3.00;2.43;;;18.00;1.00;;;;;;4971753;29;20454;-92
2023/08/08 09:45:49;;;;;;;4.83;2.23;;;19.00;1.00;;;;;;4970838;29;20501;-92
2023/08/08 09:48:17;;;;;;;4.40;2.60;;;17.90;1.00;;;;;;4969118;29;20489;-91
2023/08/08 09:50:45;;;;;;;10.23;2.83;;;18.00;1.00;;;;;;4968858;29;20557;-90
2023/08/08 09:53:13;;;;;;;4.50;2.50;;;17.50;1.00;;;;;;4969984;29;20458;-92
2023/08/08 09:55:40;;;;;;;4.40;2.40;;;18.00;1.00;;;;;;4968059;29;20484;-91
2023/08/08 09:58:08;;;;;;;2.83;2.60;;;17.90;1.00;;;;;;4966104;29;20786;-90
2023/08/08 10:00:37;;;;;;;3.57;3.20;;;17.90;1.00;;;;;;4964117;29;20520;-91
2023/08/08 10:03:04;;;;;;;4.83;2.70;;;17.70;1.00;;;;;;4963291;28;20531;-90
2023/08/08 10:05:32;;;;;;;4.10;2.30;;;;;;;;;;4962126;29;20545;-90
2023/08/08 10:07:59;;;;;;;2.67;2.00;;;17.90;1.00;;;;;;4968854;29;20450;-90
2023/08/08 10:10:26;;;;;;;5.33;2.47;;;17.90;1.00;;;;;;4966510;29;20532;-90
2023/08/08 10:12:53;;;;;;;4.77;2.10;;;17.90;1.00;;;;;;4966986;29;20489;-90
2023/08/08 10:15:26;;;;;;;3.40;2.47;;;17.90;46.20;;;;;;4967143;29;20477;-90
2023/08/08 10:17:57;;;;;;;4.67;2.20;;;17.70;1.00;;;;;;4963477;29;20506;-90
2023/08/08 10:20:25;;;;;;;4.23;2.77;;;17.90;1.00;;;;;;4962362;29;20850;-90
2023/08/08 10:22:55;;;;;;;3.53;2.90;;;17.90;1.00;;;;;;4962140;29;20544;-90
2023/08/08 10:25:26;;;;;;;3.13;2.83;;;18.10;1.00;;;;;;4961523;29;20454;-90
2023/08/08 10:28:04;;;;;;;5.33;2.47;;;18.00;1.00;;;;;;4963169;29;20443;-90
2023/08/08 10:30:42;;;;;;;3.60;2.30;;;17.90;1.00;;;;;;4963286;28;20477;-90
2023/08/08 10:33:17;;;;;;;3.37;2.53;;;18.00;1.00;;;;;;4966611;29;20450;-90
2023/08/08 10:35:54;;;;;;;2.10;1.97;;;18.10;1.00;;;;;;4965069;29;20508;-90
2023/08/08 10:38:22;;;;;;;2.57;2.23;;;18.20;1.00;;;;;;4975166;29;20538;-91
2023/08/08 10:40:49;;;;;;;3.47;2.70;;;;;;;;;;4972283;29;20453;-91
2023/08/08 10:43:16;;;;;;;2.37;2.17;;;;;;;;;;4980820;28;20469;-91
2023/08/08 10:45:44;;;;;;;4.50;2.70;;;18.60;1.00;;;;;;4977035;28;20952;-90
2023/08/08 10:48:14;;;;;;;2.97;2.67;;;18.60;1.00;;;;;;4965086;29;20481;-90
2023/08/08 10:50:42;;;;;;;2.50;2.30;;;18.60;1.00;;;;;;4967746;29;20486;-90
2023/08/08 10:53:11;;;;;;;2.73;2.53;;;18.50;1.00;;;;;;4968423;29;20458;-90
2023/08/08 10:55:38;;;;;;;5.00;3.90;;;18.50;1.00;;;;;;4973179;28;20897;-91
2023/08/08 10:58:08;;;;;;;5.20;4.70;;;18.60;1.00;;;;;;4973645;28;20517;-90
2023/08/08 11:00:36;;;;;;;4.17;3.17;;;18.60;19.30;;;;;;4980651;28;20433;-90
2023/08/08 11:03:05;;;;;;;3.33;3.03;;;18.50;1.00;;;;;;4972931;28;20482;-90
2023/08/08 11:05:35;;;;;;;3.40;2.47;;;18.50;1.00;;;;;;4966956;29;20470;-90
2023/08/08 11:08:04;;;;;;;2.03;1.93;;;18.50;1.00;;;;;;4962842;29;20450;-91
2023/08/08 11:10:36;;;;;;;3.10;2.57;;;18.40;1.00;;;;;;4964593;29;20478;-90
2023/08/08 11:13:05;;;;;;;6.10;2.57;;;18.70;1.00;;;;;;4965897;29;20434;-90
2023/08/08 11:15:35;;;;;;;2.47;2.27;;;18.90;1.00;;;;;;4991830;23;20526;-91
2023/08/08 11:18:03;;;;;;;3.03;2.77;;;;;;;;;;4962519;29;20450;-92
2023/08/08 11:20:42;;;;;;;5.10;2.90;;;19.40;4.70;;;;;;4961758;29;20443;-91
2023/08/08 11:23:14;;;;;;;4.43;2.77;;;19.10;1.80;;;;;;4965371;29;20464;-90
2023/08/08 11:25:44;;;;;;;9.07;5.93;;;19.20;1.00;;;;;;4968201;29;20466;-91
2023/08/08 11:28:14;;;;;;;3.70;3.03;;;19.30;1.00;;;;;;4964488;29;20473;-91
2023/08/08 11:30:45;;;;;;;3.13;2.80;;;19.30;1.00;;;;;;4967800;29;20525;-91
2023/08/08 11:33:18;;;;;;;5.97;5.07;;;18.80;1.00;;;;;;4964874;29;20915;-92
2023/08/08 11:35:53;;;;;;;5.83;3.83;;;17.60;29.10;;;;;;4962620;29;20466;-90
2023/08/08 11:38:21;;;;;;;3.73;3.20;;;;;;;;;;4964896;29;20517;-92
2023/08/08 11:40:55;;;;;;;2.50;2.30;;;16.20;99.90;;;;;;4964546;29;20937;-91
2023/08/08 11:43:24;;;;;;;2.67;2.40;;;;;;;;;;4962964;28;20464;-91
2023/08/08 11:45:56;;;;;;;2.30;2.03;;;15.50;99.90;;;;;;4963042;29;20541;-91
2023/08/08 11:48:24;;;;;;;3.60;3.30;;;;;;;;;;4962437;29;20445;-92
2023/08/08 11:51:05;;;;;;;3.10;2.90;;;15.40;99.90;;;;;;4962993;29;20484;-91
2023/08/08 11:53:34;;;;;;;2.93;2.50;;;15.50;1.00;;;;;;4962383;29;20480;-91
2023/08/08 11:56:09;;;;;;;2.70;2.50;;;15.70;1.00;;;;;;4961418;29;20538;-91
2023/08/08 11:58:43;;;;;;;3.13;2.77;;;15.90;1.00;;;;;;4960942;29;20955;-91
2023/08/08 12:01:15;;;;;;;4.57;3.33;;;16.00;1.00;;;;;;4961587;29;20449;-91
2023/08/08 12:03:47;;;;;;;3.93;2.27;;;16.30;99.90;;;;;;4960973;29;20462;-91
2023/08/08 12:06:18;;;;;;;5.90;2.50;;;16.60;99.90;;;;;;4964271;29;20475;-91
2023/08/08 12:08:54;;;;;;;4.00;3.10;;;16.80;99.90;;;;;;4966460;29;20539;-91
2023/08/08 12:11:28;;;;;;;4.03;2.70;;;16.90;23.00;;;;;;4965876;29;20499;-91
2023/08/08 12:14:02;;;;;;;4.00;3.23;;;15.30;54.50;;;;;;4962397;29;20478;-91
2023/08/08 12:16:30;;;;;;;4.27;3.87;;;;;;;;;;4961160;28;20544;-92
2023/08/08 12:19:01;;;;;;;4.00;3.70;;;17.40;99.90;;;;;;4963031;29;20532;-91
2023/08/08 12:21:37;;;;;;;3.37;2.93;;;17.50;1.00;;;;;;4963061;29;20436;-91
2023/08/08 12:24:07;;;;;;;3.40;3.10;;;;;;;;;;4961730;29;20851;-91
2023/08/08 12:26:36;;;;;;;2.90;2.70;;;17.70;1.00;;;;;;4960201;29;20871;-92
2023/08/08 12:29:04;;;;;;;7.73;3.00;;;;;;;;;;4961461;29;20477;-92
2023/08/08 12:31:34;;;;;;;3.03;2.80;;;;;;;;;;4960444;29;20536;-91
2023/08/08 12:34:04;;;;;;;6.90;3.53;;;17.90;1.00;;;;;;4963293;29;20523;-91
2023/08/08 12:36:33;;;;;;;3.17;2.87;;;17.90;1.00;;;;;;4962603;29;20932;-91
2023/08/08 12:39:00;;;;;;;8.83;3.80;;;;;;;;;;4960181;29;20541;-91
2023/08/08 12:41:30;;;;;;;5.93;3.30;;;17.60;99.90;;;;;;4962375;29;20458;-91
2023/08/08 12:43:57;;;;;;;3.23;3.03;;;;;;;;;;4960666;29;20450;-91
2023/08/08 12:46:25;;;;;;;3.73;3.43;;;;;;;;;;4965869;29;20904;-91
2023/08/08 12:48:54;;;;;;;5.00;3.77;;;16.50;1.00;;;;;;4971972;28;20457;-91
2023/08/08 12:51:30;;;;;;;3.97;3.67;;;16.40;1.00;;;;;;4970894;28;20591;-91
2023/08/08 12:53:59;;;;;;;6.77;4.33;;;16.70;1.00;;;;;;4968156;28;20447;-91
2023/08/08 12:56:34;;;;;;;3.30;3.10;;;16.80;1.00;;;;;;4976596;29;20453;-91
2023/08/08 12:59:02;;;;;;;7.10;3.70;;;;;;;;;;4980639;28;20484;-91
2023/08/08 13:01:30;;;;;;;4.27;3.27;;;;;;;;;;4975961;29;20537;-91
2023/08/08 13:03:59;;;;;;;3.90;3.60;;;;;;;;;;4971029;29;20441;-91
2023/08/08 13:06:33;;;;;;;2.57;2.30;;;17.40;1.00;;;;;;4971623;29;20509;-91
2023/08/08 13:09:12;;;;;;;5.23;3.13;;;17.40;1.00;;;;;;4968925;29;20481;-91
2023/08/08 13:11:39;;;;;;;4.10;3.30;;;;;;;;;;4964419;29;20520;-91
2023/08/08 13:14:11;;;;;;;3.13;2.93;;;17.80;99.10;;;;;;4976716;28;20442;-91
2023/08/08 13:16:43;;;;;;;3.60;3.30;;;17.80;99.90;;;;;;4968634;28;20485;-92
2023/08/08 13:19:13;;;;;;;3.60;3.40;;;17.80;1.00;;;;;;4966675;29;20817;-91
2023/08/08 13:21:45;;;;;;;4.87;2.90;;;17.60;1.00;;;;;;4966197;29;20469;-92
2023/08/08 13:24:20;;;;;;;3.33;2.93;;;17.80;26.80;;;;;;4968389;29;20491;-91
2023/08/08 13:26:48;;;;;;;2.80;2.60;;;;;;;;;;4967285;29;20483;-91